createdAt,value
2023-05-10T00:00:21.564Z,100120.53
2023-05-10T00:02:48.330Z,100122.19
2023-05-10T00:05:15.338Z,100117.44
2023-05-10T00:07:42.046Z,100118.03
2023-05-10T00:10:08.944Z,100120.81
2023-05-10T00:12:35.498Z,100124.38
2023-05-10T00:15:02.312Z,100118.69
2023-05-10T00:17:28.904Z,100115.63
2023-05-10T00:19:55.869Z,100116.72
2023-05-10T00:22:22.675Z,100113.38
2023-05-10T00:24:49.278Z,100108.75
2023-05-10T00:27:15.936Z,100114.63
2023-05-10T00:29:42.487Z,100106.06
2023-05-10T00:32:09.328Z,100100.50
2023-05-10T00:34:35.953Z,100105.94
2023-05-10T00:37:02.550Z,100099.06
2023-05-10T00:39:29.634Z,100096.59
2023-05-10T00:41:56.369Z,100103.12
2023-05-10T00:44:23.027Z,100094.69
2023-05-10T00:46:50.378Z,100100.16
2023-05-10T00:49:17.678Z,100102.19
2023-05-10T00:51:45.601Z,100099.34
2023-05-10T00:54:13.338Z,100093.84
2023-05-10T00:56:41.368Z,100094.34
2023-05-10T00:59:09.700Z,100102.41
2023-05-10T01:01:37.210Z,100099.53
2023-05-10T01:04:04.436Z,100099.84
2023-05-10T01:06:31.138Z,100095.66
2023-05-10T01:08:57.802Z,100096.69
2023-05-10T01:13:59.888Z,100100.03
2023-05-10T01:16:40.296Z,100096.25
2023-05-10T01:19:29.990Z,100094.56
2023-05-10T01:25:53.902Z,100088.78
2023-05-10T01:28:52.083Z,100093.25
2023-05-10T01:31:37.367Z,100093.84
2023-05-10T01:34:10.330Z,100090.16
2023-05-10T01:36:52.307Z,100092.00
2023-05-10T01:44:41.303Z,100086.91
2023-05-10T01:47:14.096Z,100086.84
2023-05-10T01:50:03.629Z,100088.34
2023-05-10T01:52:37.729Z,100086.44
2023-05-10T01:55:08.727Z,100084.47
2023-05-10T02:01:27.167Z,100081.13
2023-05-10T02:03:54.787Z,100080.72
2023-05-10T02:06:23.150Z,100075.31
2023-05-10T02:08:50.872Z,100073.69
2023-05-10T02:11:19.251Z,100067.69
2023-05-10T02:13:48.303Z,100062.69
2023-05-10T02:16:36.339Z,100066.47
2023-05-10T02:19:03.767Z,100060.34
2023-05-10T02:21:32.311Z,100065.16
2023-05-10T02:24:01.388Z,100063.94
2023-05-10T02:26:59.320Z,100065.25
2023-05-10T02:29:52.104Z,100067.97
2023-05-10T02:32:19.870Z,100063.13
2023-05-10T02:34:52.703Z,100058.00
2023-05-10T02:37:23.576Z,100063.53
2023-05-10T02:39:51.860Z,100058.53
2023-05-10T02:42:20.763Z,100064.09
2023-05-10T02:45:13.093Z,100058.47
2023-05-10T02:47:40.993Z,100054.97
2023-05-10T02:50:08.492Z,100062.47
2023-05-10T02:52:47.736Z,100062.78
2023-05-10T02:55:46.180Z,100060.41
2023-05-10T02:59:09.251Z,100065.97
2023-05-10T03:01:36.184Z,100059.75
2023-05-10T03:04:02.758Z,100059.56
2023-05-10T03:06:29.667Z,100063.13
2023-05-10T03:17:16.931Z,100064.97
2023-05-10T03:19:55.288Z,100070.28
2023-05-10T03:22:29.580Z,100066.63
2023-05-10T03:24:58.645Z,100065.28
2023-05-10T03:27:27.927Z,100069.03
2023-05-10T03:42:57.172Z,100065.41
2023-05-10T03:45:41.453Z,100057.94
2023-05-10T03:48:56.346Z,100062.31
2023-05-10T03:51:23.287Z,100065.28
2023-05-10T03:53:49.878Z,100063.34
2023-05-10T03:56:16.481Z,100065.50
2023-05-10T05:04:04.919Z,100072.31
2023-05-10T07:03:40.283Z,100114.19
2023-05-10T07:25:01.336Z,100100.50
2023-05-10T07:27:27.915Z,100103.66
2023-05-10T07:29:55.596Z,100101.56
2023-05-10T09:05:08.381Z,100084.91
2023-05-10T09:08:04.404Z,100082.53
2023-05-10T09:10:32.133Z,100092.47
2023-05-10T09:12:59.700Z,100089.94
2023-05-10T09:26:17.799Z,100085.75
2023-05-10T09:31:26.247Z,100083.47
2023-05-10T09:41:03.749Z,100065.47
2023-05-10T09:50:20.683Z,100070.41
2023-05-10T09:52:51.998Z,100071.22
2023-05-10T10:10:34.594Z,100069.34
2023-05-10T10:13:04.232Z,100055.75
2023-05-10T10:15:34.960Z,100051.63
2023-05-10T10:20:43.498Z,100034.47
2023-05-10T10:23:10.716Z,100050.50
2023-05-10T10:25:39.022Z,100043.47
2023-05-10T10:28:28.460Z,100038.06
2023-05-10T10:30:56.804Z,100035.00
2023-05-10T10:37:09.323Z,100037.16
2023-05-10T10:39:51.471Z,100040.19
2023-05-10T10:42:53.010Z,100026.16
2023-05-10T10:45:19.940Z,100033.00
2023-05-10T10:47:46.753Z,100029.16
2023-05-10T10:50:19.978Z,100024.41
2023-05-10T10:52:47.277Z,100025.00
2023-05-10T10:55:16.278Z,100020.84
2023-05-10T10:57:53.268Z,100023.03
2023-05-10T11:00:34.014Z,100017.16
2023-05-10T11:03:08.312Z,100017.59
2023-05-10T11:05:37.831Z,100010.09
2023-05-10T11:08:17.269Z,100007.94
2023-05-10T11:10:52.965Z,99999.09
2023-05-10T11:13:30.955Z,99996.66
2023-05-10T11:15:58.446Z,99995.28
2023-05-10T11:18:30.053Z,99996.00
2023-05-10T11:21:00.841Z,99999.03
2023-05-10T11:26:12.844Z,99996.28
2023-05-10T11:28:44.418Z,99992.25
2023-05-10T11:31:11.398Z,99986.94
2023-05-10T11:33:48.974Z,99976.41
2023-05-10T11:36:21.437Z,99981.59
2023-05-10T11:39:48.277Z,99983.47
2023-05-10T11:42:46.400Z,99977.94
2023-05-10T11:45:35.010Z,99977.22
2023-05-10T11:48:02.659Z,99979.91
2023-05-10T11:50:29.580Z,99970.87
2023-05-10T11:52:57.551Z,99971.09
2023-05-10T11:55:25.264Z,99970.06
2023-05-10T12:00:48.311Z,99982.91
2023-05-10T12:03:18.245Z,99978.87
2023-05-10T12:05:44.887Z,99974.00
2023-05-10T12:08:46.953Z,99981.28
2023-05-10T12:11:32.997Z,99972.03
2023-05-10T12:14:16.581Z,99974.72
2023-05-10T12:16:45.669Z,99974.00
2023-05-10T12:19:12.672Z,99972.13
2023-05-10T12:21:52.992Z,99978.25
2023-05-10T12:24:20.218Z,99969.38
2023-05-10T12:32:40.532Z,99968.69
2023-05-10T12:35:08.880Z,99962.34
2023-05-10T12:37:40.157Z,99954.22
2023-05-10T12:45:31.611Z,99940.28
2023-05-10T12:47:58.182Z,99946.09
2023-05-10T12:50:25.314Z,99943.00
2023-05-10T12:52:51.936Z,99939.75
2023-05-10T12:55:18.517Z,99947.28
2023-05-10T12:57:45.054Z,99938.66
2023-05-10T13:00:12.261Z,99935.97
2023-05-10T13:02:38.929Z,99927.63
2023-05-10T13:05:06.673Z,99922.19
2023-05-10T13:07:33.294Z,99925.75
2023-05-10T13:09:59.885Z,99918.66
2023-05-10T13:12:26.468Z,99912.56
2023-05-10T13:14:53.050Z,99919.28
2023-05-10T13:17:19.733Z,99898.62
2023-05-10T13:19:46.288Z,99913.03
2023-05-10T13:22:12.871Z,99904.22
2023-05-10T13:24:39.582Z,99905.25
2023-05-10T13:27:06.567Z,99903.13
2023-05-10T13:29:33.267Z,99908.28
2023-05-10T13:31:59.998Z,99904.59
2023-05-10T13:39:43.436Z,99892.44
2023-05-10T13:42:10.140Z,99895.22
2023-05-10T13:50:30.934Z,99885.34
2023-05-10T13:52:57.485Z,99878.16
2023-05-10T13:55:24.233Z,99874.66
2023-05-10T13:57:51.038Z,99880.91
2023-05-10T14:00:17.925Z,99874.13
2023-05-10T14:02:44.599Z,99870.66
2023-05-10T14:05:11.444Z,99863.34
2023-05-10T14:07:37.985Z,99855.06
2023-05-10T14:10:04.937Z,99857.31
2023-05-10T14:12:31.517Z,99858.59
2023-05-10T14:14:59.173Z,99859.19
2023-05-10T14:17:25.811Z,99855.03
2023-05-10T14:19:53.569Z,99851.38
2023-05-10T14:22:20.116Z,99846.19
2023-05-10T14:24:47.936Z,99845.66
2023-05-10T14:27:14.589Z,99843.50
2023-05-10T14:29:41.179Z,99842.13
2023-05-10T14:32:07.949Z,99839.50
2023-05-10T14:34:34.636Z,99843.38
2023-05-10T14:37:01.297Z,99843.16
2023-05-10T14:40:05.633Z,99847.91
2023-05-10T14:42:44.651Z,99842.91
2023-05-10T14:45:12.246Z,99855.28
2023-05-10T14:47:38.835Z,99846.84
2023-05-10T14:50:06.071Z,99847.28
2023-05-10T14:52:34.243Z,99847.28
2023-05-10T14:55:02.284Z,99851.59
2023-05-10T14:57:30.710Z,99843.25
2023-05-10T14:59:57.996Z,99841.87
2023-05-10T15:02:25.031Z,99836.09
2023-05-10T15:04:52.078Z,99834.53
2023-05-10T15:07:19.327Z,99840.87
2023-05-10T15:09:46.352Z,99838.50
2023-05-10T15:12:14.116Z,99833.41
2023-05-10T15:14:40.698Z,99845.09
2023-05-10T15:17:08.472Z,99851.44
2023-05-10T15:19:36.244Z,99846.16
2023-05-10T15:22:03.649Z,99843.44
2023-05-10T15:24:30.223Z,99838.69
2023-05-10T15:26:57.130Z,99848.41
2023-05-10T15:29:23.775Z,99842.47
2023-05-10T15:31:51.801Z,99844.56
2023-05-10T15:34:19.283Z,99844.41
2023-05-10T15:36:47.272Z,99844.34
2023-05-10T15:39:13.870Z,99842.59
2023-05-10T15:41:40.454Z,99848.28
2023-05-10T15:44:07.212Z,99840.31
2023-05-10T15:46:33.901Z,99836.72
2023-05-10T15:49:00.535Z,99835.69
2023-05-10T15:51:27.187Z,99832.22
2023-05-10T15:54:05.822Z,99835.66
2023-05-10T15:56:34.592Z,99826.56
2023-05-10T15:59:01.218Z,99834.31
2023-05-10T16:01:28.631Z,99831.09
2023-05-10T16:03:55.280Z,99838.81
2023-05-10T16:06:21.829Z,99827.41
2023-05-10T16:08:48.652Z,99832.81
2023-05-10T16:11:15.462Z,99833.41
2023-05-10T16:13:42.038Z,99837.56
2023-05-10T16:16:09.008Z,99839.97
2023-05-10T16:18:36.045Z,99842.75
2023-05-10T16:21:02.812Z,99836.50
2023-05-10T16:23:29.920Z,99834.78
2023-05-10T16:25:56.528Z,99834.88
2023-05-10T16:29:12.923Z,99842.88
2023-05-10T16:32:21.493Z,99832.00
2023-05-10T16:34:48.102Z,99845.59
2023-05-10T16:37:14.614Z,99840.31
2023-05-10T16:39:41.223Z,99846.56
2023-05-10T16:42:07.995Z,99836.59
2023-05-10T16:44:34.690Z,99839.50
2023-05-10T16:47:20.312Z,99841.56
2023-05-10T16:49:46.919Z,99839.38
2023-05-10T16:52:13.942Z,99841.03
2023-05-10T16:54:40.532Z,99838.25
2023-05-10T16:57:25.983Z,99851.41
2023-05-10T17:03:29.743Z,99850.38
2023-05-10T17:05:56.437Z,99850.94
2023-05-10T17:08:23.224Z,99856.06
2023-05-10T17:10:49.886Z,99858.59
2023-05-10T17:13:17.271Z,99860.41
2023-05-10T17:15:45.863Z,99858.94
2023-05-10T17:18:12.494Z,99859.06
2023-05-10T17:20:39.030Z,99867.56
2023-05-10T17:23:05.650Z,99862.75
2023-05-10T17:25:32.253Z,99866.91
2023-05-10T17:27:58.848Z,99866.91
2023-05-10T17:30:28.129Z,99861.09
2023-05-10T17:33:05.560Z,99865.41
2023-05-10T17:36:25.109Z,99867.56
2023-05-10T17:39:10.593Z,99866.06
2023-05-10T17:41:37.316Z,99877.56
2023-05-10T17:44:03.865Z,99869.34
2023-05-10T17:46:30.399Z,99873.84
2023-05-10T17:49:18.746Z,99874.03
2023-05-10T17:52:07.424Z,99874.44
2023-05-10T17:54:34.053Z,99877.66
2023-05-10T17:57:03.985Z,99875.94
2023-05-10T17:59:30.658Z,99886.25
2023-05-10T18:08:41.792Z,99889.66
2023-05-10T18:11:08.394Z,99884.94
2023-05-10T18:13:35.212Z,99884.56
2023-05-10T18:16:01.827Z,99889.16
2023-05-10T18:18:28.417Z,99891.78
2023-05-10T18:20:57.733Z,99893.97
2023-05-10T18:28:42.052Z,99906.22
2023-05-10T18:31:09.938Z,99907.91
2023-05-10T18:33:36.598Z,99909.31
2023-05-10T18:36:04.175Z,99920.00
2023-05-10T18:38:49.538Z,99911.50
2023-05-10T18:41:45.624Z,99919.50
2023-05-10T18:44:12.240Z,99923.63
2023-05-10T18:46:39.075Z,99924.94
2023-05-10T18:49:11.598Z,99922.91
2023-05-10T18:51:38.169Z,99922.75
2023-05-10T18:54:07.415Z,99925.37
2023-05-10T18:56:34.290Z,99936.09
2023-05-10T18:59:00.949Z,99934.63
2023-05-10T19:01:27.525Z,99932.66
2023-05-10T19:03:54.094Z,99941.25
2023-05-10T19:06:21.204Z,99934.91
2023-05-10T19:08:47.749Z,99940.47
2023-05-10T19:11:14.308Z,99933.97
2023-05-10T19:13:40.888Z,99937.84
2023-05-10T19:16:14.578Z,99942.47
2023-05-10T19:18:41.263Z,99942.59
2023-05-10T19:21:09.981Z,99940.19
2023-05-10T19:23:39.270Z,99942.56
2023-05-10T19:26:06.289Z,99942.16
2023-05-10T19:28:32.872Z,99935.97
2023-05-10T19:31:00.980Z,99944.50
2023-05-10T19:33:29.941Z,99943.31
2023-05-10T19:35:56.613Z,99946.59
2023-05-10T19:38:26.149Z,99948.37
2023-05-10T19:40:58.300Z,99946.28
2023-05-10T19:43:32.737Z,99946.72
2023-05-10T19:46:02.158Z,99946.81
2023-05-10T19:48:29.162Z,99937.66
2023-05-10T19:51:01.122Z,99947.97
2023-05-10T19:53:28.133Z,99945.53
2023-05-10T19:58:56.551Z,99946.75
2023-05-10T20:01:23.350Z,99943.31
2023-05-10T20:03:49.992Z,99941.16
2023-05-10T20:06:16.646Z,99941.03
2023-05-10T20:08:43.595Z,99940.78
2023-05-10T20:11:32.480Z,99935.56
2023-05-10T20:22:59.435Z,99938.03
2023-05-10T20:25:28.981Z,99942.00
2023-05-10T20:28:00.819Z,99940.78
2023-05-10T20:30:27.555Z,99946.59
2023-05-10T20:32:54.322Z,99945.63
2023-05-10T20:35:20.960Z,99946.16
2023-05-10T20:37:48.558Z,99948.41
2023-05-10T20:40:15.790Z,99948.59
2023-05-10T20:45:17.907Z,99944.69
2023-05-10T20:47:44.537Z,99945.44
2023-05-10T20:50:17.387Z,99938.13
2023-05-10T20:52:44.396Z,99941.50
2023-05-10T20:55:11.050Z,99943.81
2023-05-10T20:57:37.677Z,99949.84
2023-05-10T21:00:06.028Z,99942.34
2023-05-10T21:02:32.764Z,99941.94
2023-05-10T21:05:01.724Z,99945.91
2023-05-10T21:07:28.461Z,99934.38
2023-05-10T21:09:55.075Z,99937.66
2023-05-10T21:12:22.036Z,99930.28
2023-05-10T21:14:48.594Z,99934.97
2023-05-10T21:17:15.661Z,99936.81
2023-05-10T21:19:43.128Z,99931.25
2023-05-10T21:22:09.764Z,99936.78
2023-05-10T21:24:51.775Z,99931.47
2023-05-10T21:48:40.653Z,99942.59
2023-05-10T21:51:07.355Z,99948.37
2023-05-10T21:53:47.964Z,99943.34
2023-05-10T21:56:49.072Z,99942.47
2023-05-10T21:59:18.500Z,99944.41
2023-05-10T22:15:17.516Z,99962.97
2023-05-10T22:17:44.099Z,99963.44
2023-05-10T22:20:12.700Z,99966.72
2023-05-10T22:22:42.510Z,99960.03
2023-05-10T22:25:09.317Z,99965.88
2023-05-10T22:27:36.668Z,99966.53
2023-05-10T22:30:04.287Z,99965.66
2023-05-10T22:32:31.959Z,99963.28
2023-05-10T22:34:58.624Z,99965.88
2023-05-10T22:37:49.415Z,99965.09
2023-05-10T22:41:14.151Z,99966.03
2023-05-10T22:43:40.769Z,99965.50
2023-05-10T22:46:07.453Z,99959.88
2023-05-10T22:48:35.077Z,99966.38
2023-05-10T22:51:01.694Z,99965.28
2023-05-10T22:53:28.303Z,99965.75
2023-05-10T22:56:22.898Z,99966.88
2023-05-10T22:59:11.442Z,99965.72
2023-05-10T23:01:38.043Z,99972.56
2023-05-10T23:04:04.765Z,99964.28
2023-05-10T23:10:49.579Z,99968.03
2023-05-10T23:13:16.122Z,99975.50
2023-05-10T23:15:43.604Z,99976.00
2023-05-10T23:18:10.332Z,99971.31
2023-05-10T23:20:36.985Z,99968.69
2023-05-10T23:23:03.539Z,99966.09
2023-05-10T23:28:32.354Z,99970.81
2023-05-10T23:30:59.013Z,99973.38
2023-05-10T23:40:21.383Z,99969.16
2023-05-10T23:42:48.152Z,99970.31
2023-05-10T23:45:17.861Z,99970.97
2023-05-10T23:47:44.651Z,99981.03
2023-05-10T23:50:19.387Z,99974.53
